createdAt,value
2023-05-19T00:02:36.058Z,79.45
2023-05-19T00:05:22.183Z,79.76
2023-05-19T00:08:08.054Z,80.45
2023-05-19T00:10:54.016Z,79.15
2023-05-19T00:13:39.969Z,81.88
2023-05-19T00:16:25.911Z,82.71
2023-05-19T00:19:11.894Z,82.74
2023-05-19T00:21:57.900Z,82.75
2023-05-19T00:24:43.825Z,82.33
2023-05-19T00:27:29.710Z,82.83
2023-05-19T00:30:15.634Z,82.73
2023-05-19T00:33:01.701Z,83.12
2023-05-19T00:35:49.726Z,83.31
2023-05-19T00:38:35.605Z,83.19
2023-05-19T00:41:21.536Z,82.38
2023-05-19T00:44:07.571Z,82.22
2023-05-19T00:46:53.433Z,81.07
2023-05-19T00:49:39.702Z,81.75
2023-05-19T00:52:25.589Z,82.47
2023-05-19T00:55:11.456Z,81.53
2023-05-19T00:57:57.542Z,83.24
2023-05-19T01:00:43.492Z,83.04
2023-05-19T01:03:29.905Z,82.70
2023-05-19T01:06:16.218Z,81.89
2023-05-19T01:09:02.210Z,82.50
2023-05-19T01:11:48.124Z,82.33
2023-05-19T01:14:33.915Z,81.50
2023-05-19T01:17:19.900Z,83.87
2023-05-19T01:20:05.917Z,83.82
2023-05-19T01:22:51.844Z,84.19
2023-05-19T01:25:37.964Z,84.54
2023-05-19T01:28:23.975Z,84.14
2023-05-19T01:31:09.920Z,84.46
2023-05-19T01:33:55.827Z,85.02
2023-05-19T01:36:41.848Z,84.75
2023-05-19T01:39:27.796Z,82.80
2023-05-19T01:42:13.574Z,82.76
2023-05-19T01:44:59.329Z,81.44
2023-05-19T01:47:45.229Z,83.09
2023-05-19T01:50:31.670Z,83.74
2023-05-19T01:53:17.677Z,83.40
2023-05-19T01:56:03.594Z,84.63
2023-05-19T01:58:49.493Z,83.32
2023-05-19T02:01:35.315Z,83.34
2023-05-19T02:04:21.816Z,82.23
2023-05-19T02:07:08.082Z,81.77
2023-05-19T02:09:53.966Z,84.95
2023-05-19T02:12:39.915Z,85.70
2023-05-19T02:15:25.742Z,85.96
2023-05-19T02:18:11.769Z,87.95
2023-05-19T02:20:57.720Z,87.03
2023-05-19T02:23:43.616Z,88.11
2023-05-19T02:26:30.136Z,88.38
2023-05-19T02:29:15.884Z,88.48
2023-05-19T02:32:02.076Z,90.93
2023-05-19T02:34:48.248Z,89.56
2023-05-19T02:37:34.144Z,90.65
2023-05-19T02:40:20.084Z,89.44
2023-05-19T02:43:05.878Z,88.85
2023-05-19T02:45:51.755Z,88.03
2023-05-19T02:48:37.714Z,89.12
2023-05-19T02:51:23.620Z,89.06
2023-05-19T02:54:09.578Z,87.78
2023-05-19T02:56:55.504Z,87.62
2023-05-19T02:59:41.352Z,87.85
2023-05-19T03:02:27.260Z,89.08
2023-05-19T03:05:13.598Z,87.78
2023-05-19T03:07:59.506Z,88.32
2023-05-19T03:10:45.480Z,86.93
2023-05-19T03:13:31.325Z,87.52
2023-05-19T03:16:17.219Z,84.84
2023-05-19T03:19:03.604Z,83.06
2023-05-19T03:21:49.739Z,81.35
2023-05-19T03:24:35.777Z,81.56
2023-05-19T03:27:21.646Z,80.62
2023-05-19T03:30:07.640Z,81.19
2023-05-19T03:32:53.700Z,82.84
2023-05-19T03:35:39.875Z,82.58
2023-05-19T03:38:25.872Z,83.19
2023-05-19T03:41:11.910Z,83.84
2023-05-19T03:43:57.746Z,84.23
2023-05-19T03:46:43.583Z,84.25
2023-05-19T03:49:29.394Z,83.70
2023-05-19T03:52:15.358Z,85.64
2023-05-19T03:55:01.413Z,84.66
2023-05-19T03:57:47.244Z,85.11
2023-05-19T04:00:33.554Z,83.71
2023-05-19T04:03:20.203Z,85.73
2023-05-19T04:06:06.461Z,85.79
2023-05-19T04:08:52.496Z,85.83
2023-05-19T04:11:38.522Z,87.44
2023-05-19T04:14:24.472Z,84.56
2023-05-19T04:17:10.466Z,83.93
2023-05-19T04:19:56.394Z,82.60
2023-05-19T04:22:42.357Z,82.56
2023-05-19T04:25:28.405Z,83.30
2023-05-19T04:28:14.407Z,85.59
2023-05-19T04:31:00.470Z,83.98
2023-05-19T04:33:46.556Z,83.67
2023-05-19T04:36:32.405Z,84.42
2023-05-19T04:39:18.353Z,85.78
2023-05-19T04:42:04.198Z,87.97
2023-05-19T04:44:50.183Z,88.43
2023-05-19T04:47:36.157Z,91.35
2023-05-19T04:50:22.501Z,91.56
2023-05-19T04:53:08.447Z,89.74
2023-05-19T04:55:54.301Z,90.47
2023-05-19T04:58:41.887Z,89.79
2023-05-19T05:01:28.435Z,92.77
2023-05-19T05:04:14.724Z,92.44
2023-05-19T05:07:00.631Z,93.13
2023-05-19T05:09:46.578Z,94.28
2023-05-19T05:12:32.431Z,93.21
2023-05-19T05:15:18.867Z,93.09
2023-05-19T05:18:04.895Z,89.89
2023-05-19T05:20:51.090Z,91.17
2023-05-19T05:23:36.986Z,90.18
2023-05-19T05:26:23.083Z,89.83
2023-05-19T05:29:08.830Z,90.56
2023-05-19T05:31:54.822Z,89.75
2023-05-19T05:34:40.485Z,88.49
2023-05-19T05:37:26.435Z,90.79
2023-05-19T05:40:12.439Z,90.50
2023-05-19T05:42:58.780Z,88.04
2023-05-19T05:45:45.335Z,89.20
2023-05-19T05:48:31.943Z,87.91
2023-05-19T05:51:17.754Z,84.38
2023-05-19T05:54:03.709Z,84.86
2023-05-19T05:56:49.829Z,86.01
2023-05-19T05:59:35.817Z,86.43
2023-05-19T06:02:21.965Z,85.38
2023-05-19T06:05:08.115Z,85.41
2023-05-19T06:07:54.288Z,85.01
2023-05-19T06:10:40.766Z,82.50
2023-05-19T06:13:26.555Z,84.88
2023-05-19T06:16:12.634Z,82.65
2023-05-19T06:18:59.119Z,81.73
2023-05-19T06:21:45.081Z,82.37
2023-05-19T06:24:31.451Z,82.37
2023-05-19T06:27:17.413Z,81.11
2023-05-19T06:30:03.333Z,82.53
2023-05-19T06:32:49.427Z,80.87
2023-05-19T06:35:35.267Z,81.17
2023-05-19T06:38:21.127Z,81.17
2023-05-19T06:41:07.126Z,79.39
2023-05-19T06:43:53.101Z,80.54
2023-05-19T06:46:39.114Z,79.27
2023-05-19T06:49:25.281Z,77.93
2023-05-19T06:52:11.186Z,77.35
2023-05-19T06:54:57.578Z,77.63
2023-05-19T06:57:43.295Z,78.16
2023-05-19T07:00:29.301Z,79.09
2023-05-19T07:03:15.412Z,79.30
2023-05-19T07:06:01.746Z,79.40
2023-05-19T07:08:47.900Z,78.66
2023-05-19T07:11:34.529Z,76.81
2023-05-19T07:14:20.634Z,80.92
2023-05-19T07:17:06.888Z,79.51
2023-05-19T07:19:52.906Z,79.76
2023-05-19T07:22:38.802Z,79.48
2023-05-19T07:25:24.741Z,77.69
2023-05-19T07:28:10.627Z,77.76
2023-05-19T07:30:56.644Z,77.65
2023-05-19T07:33:42.719Z,77.81
2023-05-19T07:36:28.658Z,78.41
2023-05-19T07:39:14.753Z,76.28
2023-05-19T07:42:00.747Z,75.58
2023-05-19T07:44:46.838Z,76.52
2023-05-19T07:47:33.038Z,75.72
2023-05-19T07:50:19.237Z,74.90
2023-05-19T07:53:05.411Z,72.91
2023-05-19T07:55:51.670Z,73.87
2023-05-19T07:58:37.498Z,76.10
2023-05-19T08:01:23.487Z,76.42
2023-05-19T08:04:11.847Z,78.92
2023-05-19T08:06:58.931Z,78.60
2023-05-19T08:09:44.960Z,78.56
2023-05-19T08:12:30.913Z,78.86
2023-05-19T08:15:16.814Z,74.16
2023-05-19T08:18:02.898Z,74.00
2023-05-19T08:20:48.908Z,74.61
2023-05-19T08:23:35.091Z,72.48
2023-05-19T08:26:21.100Z,72.79
2023-05-19T08:29:07.410Z,74.25
2023-05-19T08:31:53.476Z,74.09
2023-05-19T08:34:39.947Z,71.58
2023-05-19T08:37:25.933Z,72.86
2023-05-19T08:40:11.823Z,73.37
2023-05-19T08:42:57.785Z,73.06
2023-05-19T08:45:43.669Z,68.88
2023-05-19T08:48:29.649Z,70.63
2023-05-19T08:51:15.498Z,68.44
2023-05-19T08:54:01.439Z,70.71
2023-05-19T08:56:47.382Z,70.07
2023-05-19T08:59:33.319Z,70.93
2023-05-19T09:02:21.437Z,69.93
2023-05-19T09:05:07.736Z,71.41
2023-05-19T09:07:53.850Z,70.43
2023-05-19T09:10:39.836Z,71.32
2023-05-19T09:13:25.892Z,70.46
2023-05-19T09:16:11.998Z,70.38
2023-05-19T09:18:58.256Z,69.51
2023-05-19T09:21:44.670Z,69.12
2023-05-19T09:24:30.602Z,67.26
2023-05-19T09:27:16.488Z,68.26
2023-05-19T09:30:02.411Z,65.78
2023-05-19T09:32:48.494Z,68.94
2023-05-19T09:35:34.467Z,66.41
2023-05-19T09:38:20.556Z,68.09
2023-05-19T09:41:06.507Z,65.37
2023-05-19T09:43:52.435Z,67.78
2023-05-19T09:46:38.482Z,67.93
2023-05-19T09:49:24.751Z,68.81
2023-05-19T09:52:11.219Z,69.16
2023-05-19T09:54:58.620Z,67.71
2023-05-19T09:57:44.534Z,68.77
2023-05-19T10:00:30.451Z,67.96
2023-05-19T10:03:16.886Z,69.32
2023-05-19T10:06:03.232Z,68.58
2023-05-19T10:08:49.011Z,69.26
2023-05-19T10:11:37.061Z,68.69
2023-05-19T10:14:23.109Z,69.69
2023-05-19T10:17:08.952Z,69.57
2023-05-19T10:19:55.019Z,68.28
2023-05-19T10:22:40.865Z,68.81
2023-05-19T10:25:26.729Z,68.33
2023-05-19T10:28:12.680Z,69.06
2023-05-19T10:30:58.655Z,68.70
2023-05-19T10:33:44.719Z,68.40
2023-05-19T10:36:30.778Z,67.92
2023-05-19T10:39:16.691Z,69.25
2023-05-19T10:42:02.660Z,68.98
2023-05-19T10:44:48.541Z,66.54
2023-05-19T10:47:34.490Z,67.39
2023-05-19T10:50:20.698Z,68.51
2023-05-19T10:53:06.876Z,66.13
2023-05-19T10:55:52.956Z,65.92
2023-05-19T10:58:38.855Z,65.63
2023-05-19T11:01:24.799Z,67.79
2023-05-19T11:04:12.867Z,66.69
2023-05-19T11:06:58.867Z,66.69
2023-05-19T11:09:44.752Z,67.54
2023-05-19T11:12:30.752Z,69.01
2023-05-19T11:15:16.789Z,69.45
2023-05-19T11:18:02.739Z,67.79
2023-05-19T11:20:48.825Z,65.56
2023-05-19T11:23:35.576Z,64.55
2023-05-19T11:26:21.980Z,66.33
2023-05-19T11:29:08.051Z,64.68
2023-05-19T11:31:53.988Z,65.11
2023-05-19T11:34:40.072Z,65.26
2023-05-19T11:37:26.040Z,64.26
2023-05-19T11:40:11.968Z,64.98
2023-05-19T11:42:58.006Z,65.88
2023-05-19T11:45:46.078Z,63.81
2023-05-19T11:48:32.267Z,64.27
2023-05-19T11:51:18.256Z,63.60
2023-05-19T11:54:04.122Z,64.23
2023-05-19T11:56:50.061Z,61.98
2023-05-19T11:59:36.484Z,64.29
2023-05-19T12:02:22.265Z,64.16
2023-05-19T12:05:08.157Z,63.00
2023-05-19T12:07:54.113Z,63.47
2023-05-19T12:10:40.125Z,62.35
2023-05-19T12:13:26.019Z,62.60
2023-05-19T12:16:11.975Z,62.99
2023-05-19T12:18:57.957Z,59.29
2023-05-19T12:21:43.938Z,59.06
2023-05-19T12:24:29.870Z,58.95
2023-05-19T12:27:15.826Z,58.04
2023-05-19T12:30:01.859Z,58.65
2023-05-19T12:32:47.787Z,60.01
2023-05-19T12:35:33.914Z,60.10
2023-05-19T12:38:20.067Z,58.51
2023-05-19T12:41:05.966Z,58.71
2023-05-19T12:43:51.957Z,60.21
2023-05-19T12:46:37.840Z,60.02
2023-05-19T12:49:23.934Z,60.74
2023-05-19T12:52:12.760Z,59.08
2023-05-19T12:54:59.401Z,58.62
2023-05-19T12:57:45.299Z,58.95
2023-05-19T13:00:31.496Z,59.28
2023-05-19T13:03:17.710Z,57.87
2023-05-19T13:06:04.150Z,57.34
2023-05-19T13:08:49.953Z,58.83
2023-05-19T13:11:35.804Z,58.99
2023-05-19T13:14:21.840Z,58.73
2023-05-19T13:17:07.757Z,56.74
2023-05-19T13:19:53.853Z,57.18
2023-05-19T13:22:40.099Z,58.98
2023-05-19T13:25:25.847Z,59.01
2023-05-19T13:28:11.908Z,58.75
2023-05-19T13:30:57.740Z,57.58
2023-05-19T13:33:43.768Z,58.18
2023-05-19T13:36:29.814Z,58.32
2023-05-19T13:39:16.010Z,57.79
2023-05-19T13:42:02.088Z,57.51
2023-05-19T13:44:48.092Z,59.69
2023-05-19T13:47:33.980Z,59.19
2023-05-19T13:50:20.093Z,60.02
2023-05-19T13:53:06.053Z,59.39
2023-05-19T13:55:52.057Z,60.15
2023-05-19T13:58:38.014Z,61.45
2023-05-19T14:01:23.895Z,60.96
2023-05-19T14:04:10.238Z,61.48
2023-05-19T14:06:56.692Z,59.66
2023-05-19T14:09:42.569Z,60.92
2023-05-19T14:12:39.381Z,60.14
2023-05-19T14:15:33.332Z,58.32
2023-05-19T14:18:19.235Z,59.98
2023-05-19T14:21:05.137Z,58.22
2023-05-19T14:23:51.252Z,60.13
2023-05-19T14:26:37.155Z,61.29
2023-05-19T14:29:23.138Z,60.00
2023-05-19T14:32:09.005Z,59.61
2023-05-19T14:34:55.023Z,59.89
2023-05-19T14:37:40.926Z,60.30
2023-05-19T14:40:26.800Z,60.47
2023-05-19T14:43:13.837Z,59.49
2023-05-19T14:46:00.142Z,61.07
2023-05-19T14:48:45.882Z,61.44
2023-05-19T14:51:31.803Z,60.76
2023-05-19T14:54:17.868Z,61.25
2023-05-19T14:57:03.905Z,61.71
2023-05-19T14:59:49.721Z,63.05
2023-05-19T15:02:35.583Z,62.72
2023-05-19T15:05:21.554Z,62.87
2023-05-19T15:08:07.526Z,63.11
2023-05-19T15:10:53.361Z,62.85
2023-05-19T15:13:39.342Z,63.42
2023-05-19T15:16:25.308Z,63.46
2023-05-19T15:19:11.368Z,64.86
2023-05-19T15:21:57.293Z,63.91
2023-05-19T15:24:43.135Z,65.42
2023-05-19T15:27:29.305Z,66.39
2023-05-19T15:30:15.398Z,67.10
2023-05-19T15:33:01.258Z,69.24
2023-05-19T15:35:47.332Z,67.96
2023-05-19T15:38:33.222Z,68.58
2023-05-19T15:41:19.147Z,67.50
2023-05-19T15:44:05.250Z,68.51
2023-05-19T15:46:51.336Z,68.93
2023-05-19T15:49:37.585Z,68.46
2023-05-19T15:52:23.508Z,69.23
2023-05-19T15:55:09.396Z,68.28
2023-05-19T15:57:55.476Z,69.23
2023-05-19T16:00:41.350Z,69.90
2023-05-19T16:03:27.424Z,69.93
2023-05-19T16:06:13.744Z,70.21
2023-05-19T16:09:01.715Z,69.53
2023-05-19T16:11:47.643Z,70.79
2023-05-19T16:14:33.692Z,70.01
2023-05-19T16:17:19.553Z,69.64
2023-05-19T16:20:05.544Z,70.23
2023-05-19T16:22:51.501Z,68.04
2023-05-19T16:25:37.718Z,69.15
2023-05-19T16:28:25.010Z,69.30
2023-05-19T16:31:11.621Z,69.60
2023-05-19T16:33:57.517Z,70.64
2023-05-19T16:36:43.493Z,69.28
2023-05-19T16:39:29.501Z,70.63
2023-05-19T16:42:15.470Z,70.46
2023-05-19T16:45:01.437Z,69.58
2023-05-19T16:47:47.287Z,70.72
2023-05-19T16:50:33.352Z,70.72
2023-05-19T16:53:19.553Z,71.02
2023-05-19T16:56:07.470Z,70.75
2023-05-19T16:58:53.405Z,70.06
2023-05-19T17:01:39.568Z,70.49
2023-05-19T17:04:26.199Z,69.64
2023-05-19T17:07:13.285Z,69.74
2023-05-19T17:09:59.187Z,68.67
2023-05-19T17:12:45.078Z,68.49
2023-05-19T17:15:31.017Z,67.82
2023-05-19T17:18:16.846Z,69.86
2023-05-19T17:21:03.047Z,69.19
2023-05-19T17:23:49.355Z,69.16
2023-05-19T17:26:35.181Z,69.39
2023-05-19T17:29:21.073Z,69.94
2023-05-19T17:32:07.050Z,68.55
2023-05-19T17:34:52.966Z,69.82
2023-05-19T17:37:38.912Z,69.36
2023-05-19T17:40:24.857Z,69.52
2023-05-19T17:43:10.776Z,69.57
2023-05-19T17:45:58.730Z,69.24
2023-05-19T17:48:45.774Z,70.39
2023-05-19T17:51:31.658Z,69.21
2023-05-19T17:54:17.548Z,70.39
2023-05-19T17:57:03.547Z,71.36
2023-05-19T17:59:49.905Z,70.82
2023-05-19T18:02:35.960Z,71.92
2023-05-19T18:05:24.246Z,71.15
2023-05-19T18:08:10.301Z,71.94
2023-05-19T18:10:56.328Z,71.79
2023-05-19T18:13:42.303Z,72.64
2023-05-19T18:16:28.406Z,72.72
2023-05-19T18:19:14.683Z,73.14
2023-05-19T18:22:00.824Z,73.44
2023-05-19T18:24:46.876Z,73.36
2023-05-19T18:27:32.770Z,73.88
2023-05-19T18:30:18.756Z,74.22
2023-05-19T18:33:04.768Z,74.14
2023-05-19T18:35:50.944Z,73.90
2023-05-19T18:38:36.989Z,74.33
2023-05-19T18:41:23.028Z,74.26
2023-05-19T18:44:08.967Z,74.32
2023-05-19T18:46:54.838Z,74.60
2023-05-19T18:49:40.977Z,74.53
2023-05-19T18:52:26.922Z,74.84
2023-05-19T18:55:13.247Z,75.68
2023-05-19T18:57:59.023Z,75.83
2023-05-19T19:00:44.912Z,75.36
2023-05-19T19:03:31.232Z,75.86
2023-05-19T19:06:17.107Z,75.67
2023-05-19T19:09:03.062Z,75.85
2023-05-19T19:11:48.999Z,75.83
2023-05-19T19:14:34.915Z,75.82
2023-05-19T19:17:20.873Z,76.38
2023-05-19T19:20:07.174Z,77.00
2023-05-19T19:22:53.154Z,78.31
2023-05-19T19:25:39.183Z,77.83
2023-05-19T19:28:25.173Z,76.89
2023-05-19T19:31:11.243Z,77.61
2023-05-19T19:33:57.253Z,78.78
2023-05-19T19:36:43.181Z,78.85
2023-05-19T19:39:29.105Z,78.43
2023-05-19T19:42:14.883Z,78.63
2023-05-19T19:45:00.938Z,79.17
2023-05-19T19:47:47.040Z,78.63
2023-05-19T19:50:33.498Z,78.78
2023-05-19T19:53:19.794Z,79.42
2023-05-19T19:56:05.835Z,79.09
2023-05-19T19:58:51.782Z,79.05
2023-05-19T20:01:37.871Z,79.42
2023-05-19T20:04:24.114Z,79.05
2023-05-19T20:07:10.512Z,79.40
2023-05-19T20:09:56.685Z,79.07
2023-05-19T20:12:42.489Z,79.73
2023-05-19T20:15:28.501Z,80.42
2023-05-19T20:18:14.501Z,79.05
2023-05-19T20:21:00.410Z,80.20
2023-05-19T20:23:46.443Z,80.22
2023-05-19T20:26:32.406Z,80.32
2023-05-19T20:29:18.260Z,79.75
2023-05-19T20:32:04.201Z,80.39
2023-05-19T20:34:50.068Z,81.11
2023-05-19T20:37:36.413Z,80.49
2023-05-19T20:40:22.238Z,81.35
2023-05-19T20:43:08.169Z,80.80
2023-05-19T20:45:54.313Z,80.77
2023-05-19T20:48:42.569Z,82.38
2023-05-19T20:51:28.493Z,82.36
2023-05-19T20:54:14.354Z,81.97
2023-05-19T20:57:00.294Z,81.31
2023-05-19T20:59:46.253Z,80.69
2023-05-19T21:02:32.262Z,81.83
2023-05-19T21:05:18.344Z,81.67
2023-05-19T21:08:04.386Z,81.18
2023-05-19T21:10:50.345Z,81.70
2023-05-19T21:13:36.395Z,80.23
2023-05-19T21:16:22.330Z,80.32
2023-05-19T21:19:08.257Z,81.77
2023-05-19T21:21:54.251Z,82.61
2023-05-19T21:24:40.154Z,84.55
2023-05-19T21:27:25.989Z,82.90
2023-05-19T21:30:11.953Z,82.52
2023-05-19T21:32:57.836Z,83.93
2023-05-19T21:35:44.050Z,84.75
2023-05-19T21:38:30.104Z,85.48
2023-05-19T21:41:15.858Z,84.87
2023-05-19T21:44:01.824Z,86.65
2023-05-19T21:46:47.825Z,86.83
2023-05-19T21:49:33.797Z,86.63
2023-05-19T21:52:19.864Z,85.43
2023-05-19T21:55:05.833Z,87.34
2023-05-19T21:57:51.865Z,88.03
2023-05-19T22:00:37.773Z,86.97
2023-05-19T22:03:23.811Z,87.25
2023-05-19T22:06:10.100Z,86.24
2023-05-19T22:08:56.148Z,85.68
2023-05-19T22:11:41.941Z,86.40
2023-05-19T22:14:27.979Z,86.29
2023-05-19T22:17:13.791Z,87.27
2023-05-19T22:19:59.738Z,88.53
2023-05-19T22:22:45.710Z,89.82
2023-05-19T22:25:31.680Z,89.07
2023-05-19T22:28:17.689Z,91.60
2023-05-19T22:31:03.841Z,91.66
2023-05-19T22:33:49.758Z,92.08
2023-05-19T22:36:36.047Z,92.38
2023-05-19T22:39:22.083Z,91.03
2023-05-19T22:42:07.962Z,89.44
2023-05-19T22:44:53.933Z,87.57
2023-05-19T22:47:39.779Z,88.73
2023-05-19T22:50:25.767Z,87.81
2023-05-19T22:53:11.738Z,88.88
2023-05-19T22:55:57.634Z,89.25
2023-05-19T22:58:43.573Z,87.92
2023-05-19T23:01:29.478Z,88.65
2023-05-19T23:04:15.425Z,89.04
2023-05-19T23:07:01.650Z,89.88
2023-05-19T23:09:47.362Z,90.54
2023-05-19T23:12:33.380Z,90.53
2023-05-19T23:15:19.449Z,91.31
2023-05-19T23:18:05.423Z,91.20
2023-05-19T23:20:51.457Z,91.57
2023-05-19T23:23:37.451Z,90.88
2023-05-19T23:26:23.433Z,91.00
2023-05-19T23:29:09.386Z,90.08
2023-05-19T23:31:55.303Z,90.06
2023-05-19T23:34:41.583Z,90.00
2023-05-19T23:37:27.622Z,90.03
2023-05-19T23:40:13.552Z,88.72
2023-05-19T23:42:59.601Z,88.00
2023-05-19T23:45:45.539Z,88.80
2023-05-19T23:48:31.577Z,88.46
2023-05-19T23:51:17.597Z,89.67
2023-05-19T23:54:03.456Z,88.76
2023-05-19T23:56:49.242Z,88.71
2023-05-19T23:59:35.196Z,87.84
